ADDS METAR Data INFO
IDs: Format: Raw Decoded Include TAF

Data at: 0624 UTC 15 Dec 2017

KGYY 150615Z AUTO 21003KT 10SM OVC100 M07/M11 A3003 RMK AO2 T10721110
KGYY 150555Z AUTO 19003KT 10SM BKN100 M07/M11 A3004 RMK AO2 T10751106 11039 21098 400001098
KGYY 150535Z AUTO 00000KT 10SM SCT100 M09/M11 A3005 RMK AO2 T10921111
KGYY 150515Z AUTO 21003KT 10SM CLR M09/M12 A3006 RMK AO2 T10861122
KGYY 150455Z AUTO 21003KT 10SM CLR M07/M11 A3006 RMK AO2 T10691107
KGYY 150435Z AUTO 00000KT 10SM CLR M09/M12 A3007 RMK AO2 T10911116
KGYY 150415Z AUTO 22003KT 10SM SCT100 M09/M11 A3007 RMK AO2 T10861109
KGYY 150345Z 25004KT 10SM FEW250 M09/M12 A3009
KGYY 150245Z 26003KT 10SM SKC M08/M03 A3009
KGYY 150145Z 27005KT 10SM FEW250 M06/M13 A3009
KGYY 150045Z 27006KT 10SM SCT250 M04/M13 A3009
KGYY 142345Z 26006KT 10SM SCT250 M04/M12 A3008
KGYY 142245Z 26003KT 10SM SCT250 M04/M10 A3007
KGYY 142145Z 27004KT 15SM FEW040 BKN250 M02/M11 A3007
KGYY 142045Z 26006KT 15SM SCT040 BKN250 M01/M11 A3005
KGYY 141945Z 26003KT 15SM SCT040 BKN250 M01/M10 A3005
KGYY 141845Z 26007KT 15SM SCT045 BKN250 M02/M08 A3005
KGYY 141745Z 27008KT 15SM FEW045 BKN250 M03/M09 A3007
KGYY 141645Z 25006KT 15SM FEW041 BKN250 M04/M09 A3009
KGYY 141545Z 25010KT 15SM BKN041 M05/M09 A3009
KGYY 141445Z 27008KT 15SM BKN038 M05/M10 A3006
KGYY 141345Z 28008KT 15SM BKN036 M05/M10 A3003 RMK SNE01
KGYY 141245Z 27008KT 7SM -SN BKN029 OVC048 M05/M09 A3000
KGYY 141145Z 29010KT 7SM -SN BKN024 OVC031 M04/M08 A2997
KGYY 141045Z 31010KT 7SM -SN OVC027 M04/M07 A2993
KGYY 141015Z AUTO 31011KT 10SM SCT015 BKN027 OVC033 M03/M07 A2992 RMK AO2 T10301069
KGYY 140955Z AUTO 30011KT 7SM -SN SCT025 BKN032 OVC037 M03/M06 A2991 RMK AO2 T10281063
KGYY 140935Z AUTO 33015G19KT 7SM -SN SCT014 BKN031 OVC037 M02/M05 A2990 RMK AO2 T10231055
KGYY 140915Z AUTO 33012KT 7SM -SN SCT013 BKN028 OVC033 M02/M05 A2988 RMK AO2 T10201054
KGYY 140855Z AUTO 32015G19KT 7SM -SN BKN013 BKN019 OVC030 M02/M05 A2989 RMK AO2 T10201053
KGYY 140835Z AUTO 32013G16KT 5SM -SN BKN011 OVC017 M02/M04 A2989 RMK AO2 T10161043
KGYY 140815Z AUTO 33015G25KT 7SM -SN SCT011 BKN021 OVC035 M01/M04 A2987 RMK AO2 T10111040
KGYY 140755Z AUTO 33016G21KT 10SM OVC035 00/M06 A2985 RMK AO2 T10021060
KGYY 140735Z AUTO 01014G24KT 10SM OVC035 00/M09 A2984 RMK AO2 T10011089
KGYY 140715Z AUTO 35018G28KT 10SM OVC032 00/M08 A2982 RMK AO2 T10011082
KGYY 140655Z AUTO 35022G27KT 10SM OVC034 00/M08 A2981 RMK AO2 T10021081
KGYY 140635Z AUTO 35020G27KT 10SM OVC032 00/M08 A2980 RMK AO2 T10011079
KGYY 140615Z AUTO 35018G24KT 10SM OVC032 00/M07 A2979 RMK AO2 T00001072
KGYY 140555Z AUTO 35017G27KT 10SM SCT026 OVC031 00/M07 A2977 RMK AO2 T10011067 10016 21010 400461051
KGYY 140535Z AUTO 35019G29KT 10SM BKN025 OVC031 00/M07 A2975 RMK AO2 T00001067
KGYY 140515Z AUTO 35018G28KT 10SM OVC025 00/M06 A2974 RMK AO2 T00001059
KGYY 140455Z AUTO 35021G28KT 10SM OVC023 00/M06 A2972 RMK AO2 T00001058
KGYY 140435Z AUTO 34016G28KT 10SM BKN025 OVC030 00/M05 A2970 RMK AO2 T00001053
KGYY 140415Z AUTO 34019G34KT 10SM BKN025 OVC031 00/M06 A2969 RMK AO2 T00001060
KGYY 140345Z 33036KT 10SM SCT021 OVC028 00/M06 A2966 RMK SNE19
KGYY 140245Z 30018G36KT 10SM -SN OVC025 M01/M07 A2961 RMK PRRR SNB35
KGYY 140145Z 29022G36KT 10SM BKN031 BKN050 OVC080 M00/M07 A2955 RMK PRRR
KGYY 140045Z 30018G37KT 10SM OVC029 00/M06 A2949 RMK PRRR
KGYY 132345Z 31024G36KT 10SM OVC031 02/M04 A2942
KGYY 132245Z 29021G31KT 10SM SCT023 OVC031 02/M01 A2936
KGYY 132145Z 26012G23KT 10SM BKN012 OVC032 02/01 A2931 RMK RAE19
KGYY 132045Z 24010G20KT 7SM -RA SCT020 OVC036 02/00 A2929 RMK SNE36 RAB36
KGYY 132027Z 24010G20KT 4SM -SN SCT007 SCT016 OVC040 02/00 A2929
KGYY 131954Z 24015G29KT 1SM SN BKN007 OVC021 03/M03 A2930
KGYY 131945Z 24015G29KT 3SM -SN SCT011 BKN021 OVC027 04/M04 A2930 RMK SNB21
KGYY 131845Z 22012G27KT 10SM SCT042 BKN080 OVC150 04/M06 A2931 RMK PRESFR